Center Line, Michigan
Current Conditions -  °F | °C
As of 5:24 PM on Sunday 21 Dec 2014 (Local Time) from KDET Reporting Station
Overcast Overcast  
Wind Chill: 28°   Ceiling: 2100
Heat Index: 33°   Visibility: 8mi
Dew Point: 22°   Wind: 6mph
Humidity: 64%   Direction: 160°SSE
Pressure: 30.25"   Gusts: NA
Location:  42.48°N, 83.03°W
Report Text: KDET 212224Z 16005KT 8SM BKN021 OVC060 01/M06 A3025 RMK AO2 T00061056 $
Loading
Personal Weather Stations






























Interactive Weather Map New forecast layout! Learn more

10-Day Weather Forecast

Advertisements
Track Severe Weather on mobile